Time;durP1;ratioP1;P1;durP2;ratioP2;P2;SDS_P1;SDS_P2;PMS_P1;PMS_P2;Temp;Humidity;BMP_temperature;BMP_pressure;BME280_temperature;BME280_humidity;BME280_pressure;Samples;Min_cycle;Max_cycle;Signal;HPM_P1;HPM_P2
2022/12/03 00:00:08;;;;;;;13.60;8.30;;;2.00;99.90;;;;;;5054874;28;20041;-80
2022/12/03 00:02:34;;;;;;;15.23;9.53;;;2.00;99.90;;;;;;5036873;28;20052;-79
2022/12/03 00:05:00;;;;;;;18.55;9.50;;;2.00;99.90;;;;;;5054114;28;20286;-80
2022/12/03 00:07:26;;;;;;;15.23;9.15;;;2.00;99.90;;;;;;5053826;28;20040;-81
2022/12/03 00:09:52;;;;;;;17.77;9.77;;;2.00;99.90;;;;;;5035620;28;20041;-80
2022/12/03 00:12:19;;;;;;;18.10;10.13;;;2.00;99.90;;;;;;5054069;28;20037;-80
2022/12/03 00:14:45;;;;;;;17.88;9.40;;;2.00;99.90;;;;;;5054465;28;20032;-80
2022/12/03 00:17:12;;;;;;;15.93;8.88;;;2.00;99.90;;;;;;5054441;28;20037;-80
2022/12/03 00:19:38;;;;;;;15.60;9.02;;;2.00;99.90;;;;;;5052980;28;20036;-81
2022/12/03 00:22:04;;;;;;;16.08;8.70;;;2.00;99.90;;;;;;5053428;28;20028;-80
2022/12/03 00:24:30;;;;;;;15.50;8.23;;;2.00;99.90;;;;;;5036445;28;20487;-80
2022/12/03 00:26:56;;;;;;;15.50;9.60;;;2.00;99.90;;;;;;5053744;28;20139;-80
2022/12/03 00:29:22;;;;;;;17.23;8.82;;;2.00;99.90;;;;;;5035072;28;20402;-80
2022/12/03 00:31:49;;;;;;;17.77;9.43;;;2.00;99.90;;;;;;5053695;28;20033;-80
2022/12/03 00:34:15;;;;;;;17.27;9.38;;;1.90;99.90;;;;;;5054126;28;20381;-79
2022/12/03 00:36:41;;;;;;;17.38;9.00;;;1.90;99.90;;;;;;5053607;28;20041;-80
2022/12/03 00:39:07;;;;;;;14.68;9.52;;;1.90;99.90;;;;;;5052158;28;20033;-80
2022/12/03 00:41:33;;;;;;;15.30;9.27;;;1.90;99.90;;;;;;5036173;28;20386;-80
2022/12/03 00:43:59;;;;;;;15.35;8.88;;;1.90;99.90;;;;;;5053399;28;20036;-80
2022/12/03 00:46:26;;;;;;;16.02;8.55;;;1.90;99.90;;;;;;5054127;28;20041;-81
2022/12/03 00:48:52;;;;;;;18.73;10.13;;;1.90;99.90;;;;;;5051914;28;20469;-81
2022/12/03 00:51:18;;;;;;;17.98;9.90;;;1.90;99.90;;;;;;5053122;28;20325;-80
2022/12/03 00:53:44;;;;;;;18.30;9.95;;;1.90;99.90;;;;;;5053490;28;20029;-80
2022/12/03 00:56:10;;;;;;;18.63;10.93;;;1.90;99.90;;;;;;5052819;28;20028;-80
2022/12/03 00:58:37;;;;;;;18.40;10.35;;;1.90;99.90;;;;;;5052232;28;20032;-81
2022/12/03 01:01:03;;;;;;;16.05;10.65;;;1.90;99.90;;;;;;5034925;28;20041;-81
2022/12/03 01:03:29;;;;;;;19.77;10.57;;;1.90;99.90;;;;;;5053587;28;20060;-81
2022/12/03 01:05:55;;;;;;;19.52;10.88;;;1.90;99.90;;;;;;5034729;28;20049;-82
2022/12/03 01:08:21;;;;;;;20.02;10.50;;;1.80;99.90;;;;;;5050908;28;20045;-80
2022/12/03 01:10:48;;;;;;;18.42;10.15;;;1.90;99.90;;;;;;5039064;28;20044;-81
2022/12/03 01:13:14;;;;;;;20.85;11.80;;;1.80;99.90;;;;;;5052483;28;20033;-81
2022/12/03 01:15:40;;;;;;;24.27;11.57;;;1.90;99.90;;;;;;5053114;28;20025;-81
2022/12/03 01:18:06;;;;;;;19.45;11.82;;;1.80;99.90;;;;;;5040263;28;20048;-80
2022/12/03 01:20:35;;;;;;;21.60;12.40;;;1.90;99.90;;;;;;5052794;28;20025;-79
2022/12/03 01:23:01;;;;;;;24.25;12.35;;;1.90;99.90;;;;;;5034527;28;20405;-80
2022/12/03 01:25:27;;;;;;;18.27;10.50;;;1.90;99.90;;;;;;5035244;28;20025;-80
2022/12/03 01:27:53;;;;;;;23.33;11.23;;;1.90;99.90;;;;;;5033081;28;20398;-79
2022/12/03 01:30:20;;;;;;;25.55;13.02;;;1.90;99.90;;;;;;5058671;28;20037;-79
2022/12/03 01:32:46;;;;;;;21.15;11.88;;;1.90;99.90;;;;;;5068649;28;20040;-80
2022/12/03 01:35:12;;;;;;;24.88;12.95;;;1.90;99.90;;;;;;5042275;28;20044;-80
2022/12/03 01:37:38;;;;;;;22.52;10.88;;;1.90;99.90;;;;;;5033245;28;20053;-80
2022/12/03 01:40:07;;;;;;;22.85;11.88;;;1.90;99.90;;;;;;5052337;28;20115;-80
2022/12/03 01:42:38;;;;;;;25.42;11.63;;;1.90;99.90;;;;;;5052551;28;20044;-80
2022/12/03 01:45:05;;;;;;;21.73;11.35;;;1.90;99.90;;;;;;5044729;28;20041;-80
2022/12/03 01:47:34;;;;;;;22.50;11.55;;;1.90;99.90;;;;;;5051512;28;20403;-81
2022/12/03 01:50:05;;;;;;;21.20;13.20;;;1.90;99.90;;;;;;5052342;28;20037;-80
2022/12/03 01:52:36;;;;;;;20.50;12.13;;;1.90;99.90;;;;;;5052855;28;20366;-81
2022/12/03 01:55:10;;;;;;;21.88;10.82;;;1.90;99.90;;;;;;5051830;28;20040;-81
2022/12/03 01:57:42;;;;;;;19.77;10.63;;;1.90;99.90;;;;;;5051100;28;20454;-81
2022/12/03 02:00:19;;;;;;;23.65;12.32;;;1.90;99.90;;;;;;5034350;28;20040;-80
2022/12/03 02:02:49;;;;;;;21.58;11.90;;;2.00;99.90;;;;;;5046225;28;20056;-81
2022/12/03 02:05:18;;;;;;;21.52;11.40;;;1.90;99.90;;;;;;5052117;28;20037;-81
2022/12/03 02:07:44;;;;;;;18.42;10.13;;;1.90;99.90;;;;;;5050739;28;20044;-81
2022/12/03 02:10:12;;;;;;;20.63;12.02;;;1.90;99.90;;;;;;5051900;28;20037;-82
2022/12/03 02:12:55;;;;;;;25.88;11.63;;;1.90;99.90;;;;;;5052536;28;20355;-81
2022/12/03 02:15:21;;;;;;;19.58;11.13;;;2.00;99.90;;;;;;5034850;28;20040;-81
2022/12/03 02:17:47;;;;;;;25.52;13.07;;;2.00;99.90;;;;;;5051067;28;20029;-81
2022/12/03 02:20:13;;;;;;;21.38;12.25;;;2.00;99.90;;;;;;5051661;28;20051;-81
2022/12/03 02:23:09;;;;;;;23.45;11.55;;;2.00;99.90;;;;;;5051974;28;20032;-81
2022/12/03 02:25:36;;;;;;;22.60;9.90;;;2.00;99.90;;;;;;5030899;28;20052;-81
2022/12/03 02:28:04;;;;;;;22.52;11.45;;;2.00;99.90;;;;;;5050050;28;20049;-81
2022/12/03 02:30:31;;;;;;;27.73;14.02;;;2.00;99.90;;;;;;5052054;28;20040;-81
2022/12/03 02:32:58;;;;;;;19.63;11.02;;;2.00;99.90;;;;;;5033426;28;20045;-81
2022/12/03 02:35:27;;;;;;;20.08;10.93;;;2.00;99.90;;;;;;5034530;28;20033;-81
2022/12/03 02:38:02;;;;;;;26.48;13.35;;;2.00;99.90;;;;;;5050582;28;20029;-81
2022/12/03 02:40:32;;;;;;;22.10;12.35;;;2.00;99.90;;;;;;5053566;28;20097;-81
2022/12/03 02:43:00;;;;;;;20.65;12.25;;;2.00;99.90;;;;;;5052529;28;20021;-82
2022/12/03 02:45:33;;;;;;;24.38;13.68;;;2.00;99.90;;;;;;5051607;28;20033;-80
2022/12/03 02:48:13;;;;;;;20.08;11.68;;;2.00;99.90;;;;;;5015324;28;20497;-80
2022/12/03 02:50:44;;;;;;;19.55;11.00;;;2.00;99.90;;;;;;5028218;28;20056;-81
2022/12/03 02:53:13;;;;;;;;;;;2.10;99.90;;;;;;5051521;28;20037;-81
2022/12/03 02:55:40;;;;;;;25.60;13.43;;;2.10;99.90;;;;;;5051675;28;19909;-80
2022/12/03 02:58:06;;;;;;;21.98;12.82;;;2.10;99.90;;;;;;5049712;28;20041;-81
2022/12/03 03:00:34;;;;;;;22.95;11.55;;;2.10;99.90;;;;;;5051938;28;20040;-81
2022/12/03 03:03:02;;;;;;;24.25;12.65;;;2.10;99.90;;;;;;5033323;28;20072;-82
2022/12/03 03:05:29;;;;;;;24.08;14.02;;;2.10;99.90;;;;;;5052445;28;20055;-80
2022/12/03 03:07:57;;;;;;;24.40;13.13;;;2.10;99.90;;;;;;5033376;28;20044;-81
2022/12/03 03:10:24;;;;;;;24.60;11.38;;;2.10;99.90;;;;;;5046077;28;20041;-80
2022/12/03 03:12:52;;;;;;;24.77;13.20;;;2.10;99.90;;;;;;5045373;28;20392;-81
2022/12/03 03:15:19;;;;;;;23.45;13.13;;;2.10;99.90;;;;;;5052731;28;20048;-81
2022/12/03 03:17:46;;;;;;;23.88;11.80;;;2.10;99.90;;;;;;5054083;28;20033;-81
2022/12/03 03:20:14;;;;;;;26.38;13.50;;;2.10;99.90;;;;;;5054956;28;20496;-81
2022/12/03 03:22:42;;;;;;;22.95;12.35;;;2.10;99.90;;;;;;5055467;28;20040;-81
2022/12/03 03:25:11;;;;;;;22.58;11.57;;;2.10;99.90;;;;;;5036577;28;20041;-81
2022/12/03 03:27:40;;;;;;;24.27;11.48;;;2.10;99.90;;;;;;5053923;28;20037;-81
2022/12/03 03:30:08;;;;;;;25.63;14.15;;;2.10;99.90;;;;;;5055019;28;20033;-81
2022/12/03 03:32:36;;;;;;;23.88;11.63;;;2.10;99.90;;;;;;5041588;28;20025;-81
2022/12/03 03:35:03;;;;;;;26.30;12.52;;;2.10;99.90;;;;;;5037239;28;20049;-81
2022/12/03 03:37:30;;;;;;;27.45;12.93;;;2.10;99.90;;;;;;5053437;28;20033;-80
2022/12/03 03:39:56;;;;;;;27.48;13.25;;;2.10;99.90;;;;;;5055104;28;20040;-81
2022/12/03 03:42:23;;;;;;;26.83;12.38;;;2.10;99.90;;;;;;5054304;28;20046;-81
2022/12/03 03:44:49;;;;;;;23.85;12.77;;;2.10;99.90;;;;;;5054933;28;20355;-81
2022/12/03 03:47:17;;;;;;;26.75;15.25;;;2.10;99.90;;;;;;5034877;28;20045;-81
2022/12/03 03:49:44;;;;;;;23.42;13.57;;;2.10;99.90;;;;;;5055029;28;20044;-81
2022/12/03 03:52:10;;;;;;;23.73;12.80;;;2.10;99.90;;;;;;5054139;28;20343;-81
2022/12/03 03:54:37;;;;;;;24.75;13.60;;;2.10;99.90;;;;;;5054812;28;20346;-80
2022/12/03 03:57:04;;;;;;;28.35;14.30;;;2.10;99.90;;;;;;5035834;28;20047;-81
2022/12/03 03:59:30;;;;;;;29.15;14.15;;;2.10;99.90;;;;;;5054033;28;20028;-81
2022/12/03 04:01:56;;;;;;;25.65;12.98;;;2.10;99.90;;;;;;5036521;28;20041;-82
2022/12/03 04:04:27;;;;;;;27.08;14.02;;;2.10;99.90;;;;;;5036176;28;20044;-81
2022/12/03 04:06:53;;;;;;;30.08;15.00;;;2.10;99.90;;;;;;5054602;28;20033;-81
2022/12/03 04:09:19;;;;;;;27.02;14.10;;;2.00;99.90;;;;;;5034131;28;20044;-82
2022/12/03 04:14:31;;;;;;;31.27;14.95;;;2.00;99.90;;;;;;5054667;28;20466;-81
2022/12/03 04:16:57;;;;;;;27.55;14.27;;;2.00;99.90;;;;;;5054147;28;20033;-82
2022/12/03 04:19:23;;;;;;;29.88;14.40;;;2.00;99.90;;;;;;5053502;28;20033;-81
2022/12/03 04:24:34;;;;;;;25.42;13.35;;;2.00;99.90;;;;;;5054212;28;20381;-81
2022/12/03 04:29:45;;;;;;;36.72;15.25;;;2.00;99.90;;;;;;5054315;28;20396;-82
2022/12/03 04:37:41;;;;;;;31.67;14.65;;;2.00;99.90;;;;;;5052538;28;20041;-82
2022/12/03 04:40:59;;;;;;;32.67;14.93;;;2.00;99.90;;;;;;5052973;28;20024;-82
2022/12/03 04:42:53;;;;;;;28.65;15.00;;;2.00;99.90;;;;;;5053902;28;20033;-81
2022/12/03 04:45:20;;;;;;;34.28;15.25;;;2.00;99.90;;;;;;5053266;28;20383;-81
2022/12/03 04:47:46;;;;;;;30.10;13.52;;;2.00;99.90;;;;;;5044619;28;20045;-82
2022/12/03 04:50:12;;;;;;;35.67;15.43;;;2.00;99.90;;;;;;5053166;28;20033;-82
2022/12/03 04:52:38;;;;;;;31.83;16.10;;;2.00;99.90;;;;;;5053635;28;20032;-81
2022/12/03 04:55:04;;;;;;;23.27;12.77;;;2.00;99.90;;;;;;5035105;28;20470;-82
2022/12/03 04:57:31;;;;;;;30.40;15.02;;;2.00;99.90;;;;;;5052242;28;20040;-82
2022/12/03 04:59:57;;;;;;;34.63;15.48;;;2.00;99.90;;;;;;5053656;28;20120;-81
2022/12/03 05:02:23;;;;;;;29.20;16.00;;;1.90;99.90;;;;;;5052476;28;20045;-81
2022/12/03 05:04:49;;;;;;;29.98;14.23;;;1.90;99.90;;;;;;5053751;28;20037;-82
2022/12/03 05:07:15;;;;;;;35.10;15.85;;;2.00;99.90;;;;;;5051678;28;20037;-81
2022/12/03 05:09:41;;;;;;;30.20;13.70;;;1.90;99.90;;;;;;5053746;28;20037;-81
2022/12/03 05:12:07;;;;;;;30.05;14.73;;;1.90;99.90;;;;;;5052835;28;20051;-82
2022/12/03 05:14:34;;;;;;;29.95;14.52;;;1.80;99.90;;;;;;5053294;28;20036;-82
2022/12/03 05:17:00;;;;;;;29.15;17.27;;;1.90;99.90;;;;;;5033115;28;20033;-82
2022/12/03 05:20:40;;;;;;;35.70;16.50;;;1.90;99.90;;;;;;5053033;28;20029;-82
2022/12/03 05:22:13;;;;;;;37.30;17.02;;;1.90;99.90;;;;;;5052364;28;20066;-82
2022/12/03 05:24:39;;;;;;;33.00;20.00;;;1.90;99.90;;;;;;5035333;28;20036;-82
2022/12/03 05:27:05;;;;;;;35.55;16.70;;;1.90;99.90;;;;;;5050861;28;20029;-81
2022/12/03 05:29:31;;;;;;;37.58;15.70;;;1.90;99.90;;;;;;5053593;28;20048;-82
2022/12/03 05:31:57;;;;;;;33.50;17.88;;;1.90;99.90;;;;;;5052871;28;20040;-83
2022/12/03 05:34:23;;;;;;;34.15;17.08;;;1.90;99.90;;;;;;5039165;28;20040;-82
2022/12/03 05:36:50;;;;;;;34.33;16.70;;;1.90;99.90;;;;;;5034666;28;20055;-83
2022/12/03 05:39:16;;;;;;;29.73;15.95;;;1.80;99.90;;;;;;5060303;28;20040;-81
2022/12/03 05:44:26;;;;;;;37.05;16.73;;;1.90;99.90;;;;;;5034784;28;20036;-81
2022/12/03 05:46:52;;;;;;;35.72;16.40;;;1.90;99.90;;;;;;5052088;28;20386;-81
2022/12/03 05:49:19;;;;;;;34.60;15.45;;;1.80;99.90;;;;;;5051528;28;20029;-80
2022/12/03 05:51:45;;;;;;;36.05;17.02;;;1.80;99.90;;;;;;5052613;28;20036;-80
2022/12/03 05:54:11;;;;;;;35.05;15.93;;;1.80;99.90;;;;;;5054670;28;20028;-80
2022/12/03 05:56:37;;;;;;;37.10;17.25;;;1.80;99.90;;;;;;5053594;28;20032;-80
2022/12/03 05:59:03;;;;;;;37.13;16.48;;;1.80;99.90;;;;;;5032504;28;20041;-80
2022/12/03 06:01:29;;;;;;;33.00;17.00;;;1.70;99.90;;;;;;5034883;28;20044;-80
2022/12/03 06:03:55;;;;;;;35.08;14.35;;;1.70;99.90;;;;;;5051991;28;20088;-80
2022/12/03 06:06:21;;;;;;;39.13;17.63;;;1.70;99.90;;;;;;5034245;28;20044;-80
2022/12/03 06:08:49;;;;;;;36.45;16.55;;;1.70;99.90;;;;;;5050920;28;20385;-80
2022/12/03 06:11:15;;;;;;;38.30;17.63;;;1.70;99.90;;;;;;5051686;28;20040;-80
2022/12/03 06:13:41;;;;;;;36.60;16.48;;;1.70;99.90;;;;;;5053160;28;20029;-80
2022/12/03 06:16:07;;;;;;;33.53;16.30;;;1.70;99.90;;;;;;5034054;28;20036;-80
2022/12/03 06:18:33;;;;;;;38.83;19.10;;;1.70;99.90;;;;;;5032710;28;20041;-79
2022/12/03 06:20:59;;;;;;;36.90;17.08;;;1.60;99.90;;;;;;5034376;28;20025;-79
2022/12/03 06:23:25;;;;;;;37.80;16.75;;;1.60;99.90;;;;;;5051301;28;20029;-80
2022/12/03 06:25:51;;;;;;;37.35;17.40;;;1.60;99.90;;;;;;5033573;28;20033;-80
2022/12/03 06:28:18;;;;;;;34.78;16.65;;;1.50;99.90;;;;;;5049919;28;20047;-80
2022/12/03 06:30:44;;;;;;;36.45;16.88;;;1.50;99.90;;;;;;5034361;28;20052;-79
2022/12/03 06:33:10;;;;;;;40.38;17.60;;;1.50;99.90;;;;;;5054527;28;20465;-80
2022/12/03 06:35:36;;;;;;;40.58;17.77;;;1.40;99.90;;;;;;5035100;28;20033;-80
2022/12/03 06:38:02;;;;;;;41.75;18.23;;;1.40;99.90;;;;;;5051283;28;20033;-81
2022/12/03 06:40:29;;;;;;;41.50;19.25;;;1.30;99.90;;;;;;5054718;28;20040;-80
2022/12/03 06:42:55;;;;;;;41.75;17.70;;;1.30;99.90;;;;;;5034435;28;20037;-80
2022/12/03 06:45:21;;;;;;;42.78;18.40;;;1.30;99.90;;;;;;5051298;28;20029;-80
2022/12/03 06:47:47;;;;;;;46.97;19.75;;;1.20;99.90;;;;;;5050564;28;20033;-80
2022/12/03 06:50:13;;;;;;;42.50;19.20;;;1.10;99.90;;;;;;5035737;28;20068;-80
2022/12/03 06:52:40;;;;;;;42.08;18.75;;;1.00;99.90;;;;;;5038199;28;20029;-81
2022/12/03 06:55:06;;;;;;;42.15;18.90;;;1.00;99.90;;;;;;5037409;28;20029;-81
2022/12/03 06:57:33;;;;;;;46.15;19.20;;;1.00;99.90;;;;;;5036358;28;20044;-81
2022/12/03 06:59:59;;;;;;;45.35;19.83;;;0.90;99.90;;;;;;5056000;28;20446;-81
2022/12/03 07:02:25;;;;;;;50.85;19.88;;;0.80;99.90;;;;;;5054975;28;20063;-81
2022/12/03 07:04:51;;;;;;;50.63;21.45;;;0.80;99.90;;;;;;5037932;28;20037;-81
2022/12/03 07:07:17;;;;;;;48.45;21.65;;;0.80;99.90;;;;;;5035078;28;20040;-81
2022/12/03 07:09:43;;;;;;;48.88;20.92;;;0.70;99.90;;;;;;5055570;28;20033;-81
2022/12/03 07:12:09;;;;;;;52.58;22.80;;;0.60;99.90;;;;;;5036626;28;20048;-82
2022/12/03 07:14:36;;;;;;;48.55;21.75;;;0.60;99.90;;;;;;5055460;28;20033;-81
2022/12/03 07:17:02;;;;;;;57.53;22.67;;;0.60;99.90;;;;;;5038643;28;20458;-81
2022/12/03 07:19:28;;;;;;;47.78;21.73;;;0.50;99.90;;;;;;5057099;28;20043;-81
2022/12/03 07:21:54;;;;;;;50.80;23.25;;;0.50;99.90;;;;;;5057063;28;20033;-81
2022/12/03 07:24:20;;;;;;;52.05;20.60;;;0.50;99.90;;;;;;5022299;28;20041;-81
2022/12/03 07:26:46;;;;;;;46.60;19.85;;;0.50;99.90;;;;;;5055794;28;20032;-82
2022/12/03 07:29:12;;;;;;;52.80;20.52;;;0.60;99.90;;;;;;5037912;28;20033;-81
2022/12/03 07:31:39;;;;;;;49.65;21.80;;;0.60;99.90;;;;;;5037981;28;20386;-82
2022/12/03 07:34:06;;;;;;;56.95;23.45;;;0.70;99.90;;;;;;5056582;28;20040;-81
2022/12/03 07:36:32;;;;;;;53.92;22.48;;;0.70;99.90;;;;;;5055801;28;20033;-82
2022/12/03 07:38:58;;;;;;;52.80;22.85;;;0.70;99.90;;;;;;5053903;28;20044;-81
2022/12/03 07:41:24;;;;;;;65.30;23.38;;;0.80;99.90;;;;;;5054153;28;20037;-82
2022/12/03 07:43:51;;;;;;;55.15;22.92;;;0.80;99.90;;;;;;5056518;28;20029;-81
2022/12/03 07:46:17;;;;;;;56.80;22.15;;;0.80;99.90;;;;;;5038081;28;20036;-82
2022/12/03 07:48:43;;;;;;;65.90;24.25;;;0.80;99.90;;;;;;5054939;28;20036;-82
2022/12/03 07:51:09;;;;;;;55.78;22.67;;;0.80;99.90;;;;;;5037945;28;20048;-82
2022/12/03 07:53:36;;;;;;;62.63;23.95;;;0.80;99.90;;;;;;5038818;28;20378;-82
2022/12/03 07:56:03;;;;;;;58.33;23.02;;;0.80;99.90;;;;;;5055829;28;20041;-82
2022/12/03 07:58:29;;;;;;;56.05;21.45;;;0.90;99.90;;;;;;5035686;28;20064;-81
2022/12/03 08:00:56;;;;;;;49.53;20.10;;;0.90;99.90;;;;;;5021343;28;20120;-82
2022/12/03 08:03:22;;;;;;;52.63;21.80;;;1.00;99.90;;;;;;5055589;28;20056;-81
2022/12/03 08:05:49;;;;;;;54.60;21.95;;;1.00;99.90;;;;;;5056303;28;20033;-82
2022/12/03 08:08:15;;;;;;;45.30;20.83;;;1.10;99.90;;;;;;5053716;28;20045;-81
2022/12/03 08:10:41;;;;;;;54.75;21.80;;;1.20;99.90;;;;;;5038340;28;20041;-80
2022/12/03 08:13:13;;;;;;;60.25;20.88;;;1.30;99.90;;;;;;5055726;28;20036;-83
2022/12/03 08:15:40;;;;;;;50.42;20.92;;;1.50;99.90;;;;;;5055172;28;20033;-80
2022/12/03 08:18:13;;;;;;;42.35;21.63;;;1.60;99.90;;;;;;5036477;28;20473;-81
2022/12/03 08:20:41;;;;;;;44.42;20.42;;;1.80;99.90;;;;;;5054561;28;20036;-81
2022/12/03 08:23:26;;;;;;;38.42;18.33;;;1.80;99.90;;;;;;5054437;28;20037;-81
2022/12/03 08:25:52;;;;;;;37.72;17.40;;;1.90;99.90;;;;;;5054075;28;20025;-80
2022/12/03 08:28:21;;;;;;;35.88;16.58;;;2.00;99.90;;;;;;5051783;28;20048;-80
2022/12/03 08:31:07;;;;;;;34.78;16.35;;;2.00;99.90;;;;;;5053683;28;20033;-80
2022/12/03 08:33:35;;;;;;;36.00;16.13;;;2.00;99.90;;;;;;5047894;28;20045;-81
2022/12/03 08:36:12;;;;;;;38.67;17.08;;;2.00;99.90;;;;;;5036259;28;20481;-80
2022/12/03 08:38:40;;;;;;;30.33;14.48;;;2.10;99.90;;;;;;5052595;28;20037;-80
2022/12/03 08:41:13;;;;;;;35.00;15.45;;;2.20;98.90;;;;;;5036117;28;20044;-79
2022/12/03 08:43:41;;;;;;;28.48;13.98;;;2.20;97.10;;;;;;5035659;28;20381;-80
2022/12/03 08:46:16;;;;;;;27.42;14.18;;;2.30;95.30;;;;;;5053964;28;20033;-80
2022/12/03 08:48:43;;;;;;;32.80;15.82;;;2.30;93.30;;;;;;5034551;28;20528;-80
2022/12/03 08:51:13;;;;;;;33.05;14.88;;;2.40;92.60;;;;;;5053030;28;20044;-82
2022/12/03 08:53:47;;;;;;;29.50;14.70;;;2.40;89.70;;;;;;5053225;28;20489;-80
2022/12/03 08:56:24;;;;;;;31.35;16.50;;;2.50;90.90;;;;;;5052795;28;20037;-81
2022/12/03 08:58:57;;;;;;;23.70;13.15;;;2.60;86.30;;;;;;5034595;28;20045;-79
2022/12/03 09:01:40;;;;;;;30.35;15.45;;;2.70;81.30;;;;;;5034587;28;20041;-80
2022/12/03 09:04:41;;;;;;;25.80;13.10;;;2.80;79.60;;;;;;5053521;28;20044;-80
2022/12/03 09:07:07;;;;;;;30.48;14.52;;;2.90;76.80;;;;;;5051807;28;20033;-80
2022/12/03 09:09:34;;;;;;;25.10;12.90;;;2.90;70.90;;;;;;5052649;28;20052;-80
2022/12/03 09:12:01;;;;;;;25.67;13.77;;;3.00;65.70;;;;;;5052827;28;20033;-80
2022/12/03 09:14:27;;;;;;;22.35;12.70;;;3.00;57.10;;;;;;5034453;28;20390;-80
2022/12/03 09:16:54;;;;;;;25.85;13.35;;;3.10;59.20;;;;;;5051629;28;20040;-78
2022/12/03 09:19:22;;;;;;;28.70;15.45;;;3.20;51.40;;;;;;5034596;28;20049;-78
2022/12/03 09:21:49;;;;;;;23.73;13.23;;;3.00;47.80;;;;;;5053102;28;20051;-77
2022/12/03 09:24:15;;;;;;;29.40;14.30;;;3.00;48.20;;;;;;5035810;28;20041;-79
2022/12/03 09:26:41;;;;;;;34.45;16.15;;;3.00;46.90;;;;;;5051584;28;20029;-79
2022/12/03 09:29:08;;;;;;;26.00;13.80;;;3.00;45.70;;;;;;5052640;28;20040;-78
2022/12/03 09:31:34;;;;;;;26.45;15.23;;;3.00;43.80;;;;;;5052404;28;20369;-78
2022/12/03 09:34:01;;;;;;;25.70;13.90;;;3.10;43.20;;;;;;5053024;28;20359;-79
2022/12/03 09:36:27;;;;;;;30.60;14.57;;;3.20;41.40;;;;;;5051593;28;20044;-78
2022/12/03 09:38:54;;;;;;;24.58;13.15;;;3.20;37.20;;;;;;5058743;28;20041;-77
2022/12/03 09:41:21;;;;;;;27.70;14.43;;;3.30;30.60;;;;;;5073900;28;20033;-79
2022/12/03 09:43:47;;;;;;;27.90;14.07;;;3.50;29.50;;;;;;5062558;28;20389;-80
2022/12/03 09:46:16;;;;;;;22.70;13.25;;;3.60;26.00;;;;;;5052027;28;20040;-80
2022/12/03 09:48:42;;;;;;;24.95;13.85;;;3.60;18.50;;;;;;5050671;28;20037;-79
2022/12/03 09:51:10;;;;;;;25.20;14.27;;;3.50;13.50;;;;;;5057708;28;20040;-79
2022/12/03 09:53:38;;;;;;;24.23;13.35;;;3.50;17.10;;;;;;5054034;28;20223;-79
2022/12/03 09:56:05;;;;;;;29.05;13.77;;;3.60;17.90;;;;;;5050527;28;20029;-80
2022/12/03 09:58:31;;;;;;;27.05;13.05;;;3.60;15.10;;;;;;5050379;28;20108;-81
2022/12/03 10:00:57;;;;;;;24.00;12.65;;;3.80;17.60;;;;;;5051848;28;20378;-80
2022/12/03 10:03:28;;;;;;;28.42;14.20;;;3.80;11.20;;;;;;5029526;28;20053;-85
2022/12/03 10:05:55;;;;;;;25.02;13.60;;;3.70;12.50;;;;;;5031257;28;20033;-83
2022/12/03 10:08:22;;;;;;;22.65;11.52;;;3.80;14.90;;;;;;5029694;28;20029;-84
2022/12/03 10:10:51;;;;;;;24.38;13.70;;;3.70;8.10;;;;;;5032207;28;20044;-83
2022/12/03 10:13:25;;;;;;;23.65;14.55;;;3.90;14.40;;;;;;5030353;28;20033;-85
2022/12/03 10:15:54;;;;;;;22.15;12.32;;;4.00;7.50;;;;;;5032512;28;20462;-81
2022/12/03 10:18:23;;;;;;;26.75;14.27;;;3.90;4.60;;;;;;5028961;28;20474;-81
2022/12/03 10:20:51;;;;;;;25.13;13.60;;;3.90;5.70;;;;;;5032205;28;20033;-85
2022/12/03 10:23:20;;;;;;;22.02;12.48;;;4.10;6.50;;;;;;5030595;28;20057;-84
2022/12/03 10:25:55;;;;;;;20.70;12.30;;;4.20;1.00;;;;;;5030513;28;20029;-83
2022/12/03 10:28:35;;;;;;;24.23;11.70;;;4.10;1.00;;;;;;5030269;28;20041;-81
2022/12/03 10:31:04;;;;;;;22.27;12.75;;;4.20;1.70;;;;;;5026304;28;20040;-83
2022/12/03 10:33:40;;;;;;;23.23;12.35;;;4.40;1.00;;;;;;5024459;28;20037;-81
2022/12/03 10:36:18;;;;;;;22.73;12.68;;;4.50;1.00;;;;;;5029102;28;20034;-85
2022/12/03 10:38:45;;;;;;;22.50;13.90;;;4.40;1.00;;;;;;5032670;28;20033;-82
2022/12/03 10:41:26;;;;;;;23.77;13.35;;;4.50;1.00;;;;;;5030616;28;20037;-81
2022/12/03 10:43:52;;;;;;;24.83;12.55;;;4.60;1.00;;;;;;5032210;28;20029;-81
2022/12/03 10:46:20;;;;;;;24.35;13.70;;;4.70;1.00;;;;;;5030250;28;20034;-81
2022/12/03 10:49:17;;;;;;;25.13;12.75;;;4.70;1.00;;;;;;5029842;28;20047;-80
2022/12/03 10:51:46;;;;;;;21.13;11.85;;;4.40;1.00;;;;;;5031918;28;20068;-81
2022/12/03 10:54:18;;;;;;;26.90;13.18;;;4.30;1.00;;;;;;5030942;28;20033;-79
2022/12/03 10:56:45;;;;;;;25.85;13.65;;;4.40;1.00;;;;;;5029173;28;20041;-79
2022/12/03 10:59:27;;;;;;;21.35;12.25;;;4.50;1.00;;;;;;5031732;28;20052;-79
2022/12/03 11:01:53;;;;;;;26.83;13.95;;;4.60;1.00;;;;;;5032977;28;20053;-80
2022/12/03 11:04:32;;;;;;;20.13;13.27;;;4.60;1.00;;;;;;5051133;28;20462;-78
2022/12/03 11:07:02;;;;;;;23.05;12.07;;;4.50;1.00;;;;;;5050381;28;20386;-79
2022/12/03 11:09:31;;;;;;;23.13;14.10;;;4.40;1.00;;;;;;5050616;28;20055;-81
2022/12/03 11:12:05;;;;;;;25.42;13.98;;;4.30;1.00;;;;;;5051484;28;20355;-80
2022/12/03 11:14:50;;;;;;;22.65;11.77;;;4.20;1.00;;;;;;5032845;28;20044;-81
2022/12/03 11:17:38;;;;;;;25.75;13.50;;;4.10;1.00;;;;;;5026365;28;20041;-83
2022/12/03 11:20:24;;;;;;;23.75;12.85;;;4.10;1.00;;;;;;5053514;28;20037;-81
2022/12/03 11:22:51;;;;;;;24.65;13.18;;;4.10;1.00;;;;;;5035131;28;20394;-80
2022/12/03 11:25:24;;;;;;;25.10;12.57;;;4.10;1.00;;;;;;5033499;28;20036;-83
2022/12/03 11:28:11;;;;;;;25.33;12.45;;;4.20;1.00;;;;;;5043822;28;20040;-83
2022/12/03 11:30:50;;;;;;;24.45;12.93;;;4.20;1.00;;;;;;5033230;28;20041;-81
2022/12/03 11:33:29;;;;;;;26.02;13.15;;;4.30;1.00;;;;;;5051462;28;20446;-83
2022/12/03 11:36:04;;;;;;;24.25;13.35;;;4.30;1.00;;;;;;5052776;28;20041;-83
2022/12/03 11:38:36;;;;;;;24.75;13.70;;;4.40;1.00;;;;;;5053465;28;20025;-81
2022/12/03 11:41:34;;;;;;;21.85;13.75;;;4.50;1.00;;;;;;5054977;28;20044;-80
2022/12/03 11:44:23;;;;;;;24.65;13.57;;;4.60;1.00;;;;;;5005457;28;20041;-80
2022/12/03 11:46:50;;;;;;;27.10;13.90;;;4.70;1.00;;;;;;5056464;28;20469;-80
2022/12/03 11:49:36;;;;;;;24.63;13.40;;;4.80;1.00;;;;;;5040358;28;20048;-80
2022/12/03 11:52:18;;;;;;;25.52;13.85;;;4.80;1.00;;;;;;5054723;28;20044;-81
2022/12/03 11:54:49;;;;;;;24.73;12.63;;;4.80;1.00;;;;;;5054569;28;20492;-80
2022/12/03 11:57:26;;;;;;;25.92;13.57;;;4.80;1.00;;;;;;5053473;28;20453;-79
2022/12/03 11:59:57;;;;;;;26.60;14.80;;;4.80;1.00;;;;;;5054621;28;20037;-81
2022/12/03 12:02:24;;;;;;;25.63;13.73;;;4.80;1.00;;;;;;5025464;28;20499;-80
2022/12/03 12:04:50;;;;;;;26.08;15.27;;;4.80;1.00;;;;;;5014875;28;20042;-80
2022/12/03 12:07:36;;;;;;;25.42;14.80;;;4.90;1.00;;;;;;5011997;28;20038;-80
2022/12/03 12:10:02;;;;;;;24.90;12.68;;;4.80;1.00;;;;;;5014769;28;20057;-79
2022/12/03 12:12:38;;;;;;;24.50;14.10;;;4.80;1.00;;;;;;5007772;28;20037;-80
2022/12/03 12:15:34;;;;;;;22.00;13.40;;;4.80;1.00;;;;;;5014840;28;20455;-80
2022/12/03 12:18:37;;;;;;;28.40;14.07;;;4.70;1.00;;;;;;4992336;28;20042;-80
2022/12/03 12:21:48;;;;;;;27.50;13.63;;;4.60;1.00;;;;;;4997103;28;20042;-79
2022/12/03 12:24:39;;;;;;;29.58;14.65;;;4.60;1.00;;;;;;5014137;28;20037;-80
2022/12/03 12:27:33;;;;;;;25.77;14.98;;;4.60;1.00;;;;;;5013455;28;20034;-79
2022/12/03 12:30:06;;;;;;;27.17;14.00;;;4.60;1.00;;;;;;5014037;28;20577;-79
2022/12/03 12:32:46;;;;;;;27.15;15.13;;;4.60;1.00;;;;;;5014105;28;20046;-81
2022/12/03 12:35:14;;;;;;;25.70;13.57;;;4.60;1.00;;;;;;4995917;28;20046;-79
2022/12/03 12:37:49;;;;;;;35.28;17.77;;;4.60;1.00;;;;;;5011092;28;20034;-77
2022/12/03 12:40:17;;;;;;;32.40;16.45;;;4.60;1.00;;;;;;5014280;28;20489;-76
2022/12/03 12:42:58;;;;;;;30.08;17.48;;;4.60;1.00;;;;;;4995065;28;20050;-76
2022/12/03 12:45:32;;;;;;;29.48;15.07;;;4.70;1.00;;;;;;5012820;28;20037;-78
2022/12/03 12:48:20;;;;;;;29.58;15.55;;;4.70;1.00;;;;;;5010850;28;20106;-77
2022/12/03 12:51:11;;;;;;;25.75;15.38;;;4.60;1.00;;;;;;5013616;28;20036;-77
2022/12/03 12:53:41;;;;;;;29.05;16.13;;;4.70;1.00;;;;;;4997908;28;20053;-77
2022/12/03 12:56:41;;;;;;;28.27;16.33;;;4.80;1.00;;;;;;5011458;28;20045;-77
2022/12/03 12:59:19;;;;;;;27.02;14.80;;;4.70;1.00;;;;;;5001019;28;20069;-78
2022/12/03 13:01:47;;;;;;;29.40;15.80;;;4.80;1.00;;;;;;5017575;28;20057;-80
2022/12/03 13:04:19;;;;;;;30.20;14.48;;;4.80;1.00;;;;;;5035739;28;20048;-83
2022/12/03 13:06:46;;;;;;;;;;;4.60;1.00;;;;;;5053050;28;20036;-82
2022/12/03 13:09:21;;;;;;;25.10;13.68;;;4.60;1.00;;;;;;5033346;28;20361;-82